Terminal Aerodrome Forecast
Issued by NWS

Home | Current Version | Previous Version | Text Only | Print | Product List | Glossary On
Versions: 1 2 3 4 5 6 7 8 9 10 11 12 13 14 15 16 17 18
053
FTUS44 KLZK 071738
TAFBPK
TAF
KBPK 071738Z 0718/0818 10006KT P6SM OVC060
     FM080000 36004KT P6SM OVC040
     FM080600 33004KT P6SM BKN250=

USA.gov is the U.S. government's official web portal to all federal, state and local government web resources and services.